Arbon, ID

8:28 AM MDT on August 25, 2019 (GMT -0600)
cranbrook1 | | Change Station
Active Advisory: Fire Weather Warning

Elev 5095 ft 42.30 °N, 112.61 °W | Updated 10 seconds ago

Clear
Clear
70.2 °F
Feels Like 75 °F
N
0
Wind Variable Wind from East
Gusts 0.0 mph

Today
High -- | Low -- °F
--% Chance of Precip.
Yesterday
High -- | Low -- °F
Precip. -- in
Pressure 29.88 in
Visibility 10.0 miles
Clouds Clear
Heat Index 75 °F
Dew Point 32 °F
Humidity 24%
Rainfall 0.00 in
Snow Depth Not available.
6:47 AM 8:16 PM
Waning Crescent, 30% visible
METAR KPIH 251353Z 21013KT 10SM CLR 19/02 A3004 RMK AO2 SLP119 T01890022
Pressure 29.88 in
Visibility 10.0 miles
Clouds Clear
Heat Index 75 °F
Dew Point 32 °F
Humidity 24%
Rainfall 0.00 in
Snow Depth Not available.
6:47 AM 8:16 PM
Waning Crescent, 30% visible
METAR KPIH 251353Z 21013KT 10SM CLR 19/02 A3004 RMK AO2 SLP119 T01890022

Get Your Daily Forecast Email!

Thanks for signing up!

Be on the lookout for a verification email in your inbox.

You'll start receiving severe weather alerts in your inbox..

×

10-Day Weather Forecast

Almanac

Astronomy

Aug. 25, 2019 Rise Set
Actual Time
Civil Twilight
Nautical Twilight
Astronomical Twilight
Moon
Length of Visible Light
Length of Day
Tomorrow will be .
, % of the Moon is Illuminated

Today's Extremes

State Highs State Lows

Community

WunderPhotos

Category 6

Welcome to Category 6. This is the collective home for Weather Underground's featured writeups by Dr. Jeff Masters (right), Bob Henson (left), Chris Burt, and other regular contributors.

Nearby

Air Quality

  Air Quality AQ Index Pollutant
Not available.

Snow Depth

Station Depth Elevation

Earthquake Activity

City Distance Mag. Time & Date
Minimum magnitude displayed is 2.5.

Coastal Water Temperatures

Place Temperature

Stations

Nearby Weather Stations

Station Location Temp. Windchill Dew Point Humidity Wind Precip. Elev Updated Type
                   

Watches & Warnings

Fire Weather Warning
Issued: 2:19 AM MDT Aug. 25, 2019 – National Weather Service

... Red flag warning now in effect from 1 PM this afternoon to
9 PM MDT this evening for gusty winds and low humidity for fire
weather zone 413 below 5800 feet elevation...

* affected area... fire weather zone 413 Caribou Range/Caribou nf
below 5800 feet msl.

* Winds... west 15 to 25 mph with gusts up to 40 mph.

* Relative humidity... 13 to 18 percent.

* Impacts... once a fire starts, fast fire spread rates and high
intensity fires are likely to result.

Precautionary/preparedness actions...

A red flag warning means that critical fire weather conditions
are expected for southeastern Idaho based on the following
conditions:

* relative humidity at or below 15 percent and wind gusts of at
least 25 mph in the mountains, and/or 30 mph in the snake
plain.